Time;durP1;ratioP1;P1;durP2;ratioP2;P2;SDS_P1;SDS_P2;PMS_P1;PMS_P2;Temp;Humidity;BMP_temperature;BMP_pressure;BME280_temperature;BME280_humidity;BME280_pressure;Samples;Min_cycle;Max_cycle;Signal;HPM_P1;HPM_P2
2022/05/05 00:02:24;;;;;;;2.50;2.30;;;6.10;99.90;;;;;;5022443;28;20208;-81
2022/05/05 00:04:53;;;;;;;3.50;2.43;;;6.10;99.90;;;;;;5008930;28;20227;-81
2022/05/05 00:07:19;;;;;;;3.90;3.10;;;6.00;99.90;;;;;;5011486;28;20291;-81
2022/05/05 00:09:46;;;;;;;9.50;2.70;;;5.90;99.90;;;;;;5012089;28;20208;-82
2022/05/05 00:14:58;;;;;;;2.53;2.33;;;5.90;99.90;;;;;;5012612;28;20224;-82
2022/05/05 00:17:25;;;;;;;2.63;2.43;;;6.00;99.90;;;;;;5022276;28;20212;-82
2022/05/05 00:19:53;;;;;;;4.30;3.03;;;5.90;99.90;;;;;;5026696;28;20197;-82
2022/05/05 00:22:20;;;;;;;6.20;4.27;;;5.90;99.90;;;;;;5028075;28;20203;-81
2022/05/05 00:24:46;;;;;;;4.77;3.40;;;5.90;99.90;;;;;;5028668;28;20243;-82
2022/05/05 00:27:13;;;;;;;3.63;3.03;;;5.80;99.90;;;;;;4999184;28;20536;-81
2022/05/05 00:29:40;;;;;;;4.27;3.10;;;5.80;99.90;;;;;;5027981;28;20204;-81
2022/05/05 00:32:07;;;;;;;7.43;3.20;;;5.70;99.90;;;;;;5015139;28;20837;-82
2022/05/05 00:34:34;;;;;;;6.00;3.13;;;5.70;99.90;;;;;;5022922;28;20220;-82
2022/05/05 00:37:03;;;;;;;6.30;3.53;;;5.60;99.90;;;;;;5024446;28;20500;-82
2022/05/05 00:39:31;;;;;;;5.07;3.10;;;5.60;99.90;;;;;;5013460;28;20188;-82
2022/05/05 00:42:00;;;;;;;9.07;3.03;;;5.50;99.90;;;;;;5027840;28;20199;-82
2022/05/05 00:44:27;;;;;;;8.07;3.60;;;5.50;99.90;;;;;;5017358;28;20612;-82
2022/05/05 00:46:54;;;;;;;3.70;3.03;;;5.50;99.90;;;;;;5020111;28;20205;-82
2022/05/05 00:49:21;;;;;;;6.00;3.80;;;5.50;99.90;;;;;;5039177;28;20204;-81
2022/05/05 00:51:48;;;;;;;4.13;2.80;;;5.40;99.90;;;;;;5012283;28;20204;-82
2022/05/05 00:54:17;;;;;;;6.37;3.40;;;5.30;99.90;;;;;;5027617;28;20289;-81
2022/05/05 00:56:46;;;;;;;5.70;3.43;;;5.30;99.90;;;;;;5044638;28;20232;-82
2022/05/05 00:59:14;;;;;;;5.33;3.50;;;5.20;99.90;;;;;;5013551;28;20215;-81
2022/05/05 01:01:40;;;;;;;6.53;3.53;;;5.20;99.90;;;;;;5024457;28;20207;-81
2022/05/05 01:04:08;;;;;;;4.63;3.57;;;5.30;99.90;;;;;;5016299;28;20227;-81
2022/05/05 01:06:35;;;;;;;3.60;3.20;;;5.30;99.90;;;;;;5008985;28;20231;-81
2022/05/05 01:09:05;;;;;;;3.37;3.07;;;5.40;99.90;;;;;;5029955;28;20188;-82
2022/05/05 01:11:33;;;;;;;3.47;3.17;;;5.30;99.90;;;;;;5015201;28;20289;-81
2022/05/05 01:14:00;;;;;;;6.97;3.50;;;5.20;99.90;;;;;;5001579;28;20235;-83
2022/05/05 01:16:26;;;;;;;3.73;2.97;;;5.20;99.90;;;;;;5035472;28;20203;-82
2022/05/05 01:18:55;;;;;;;3.93;3.63;;;5.20;99.90;;;;;;5011654;28;20224;-82
2022/05/05 01:21:24;;;;;;;7.67;3.70;;;5.20;99.90;;;;;;5018106;28;20617;-82
2022/05/05 01:23:51;;;;;;;4.17;3.30;;;4.90;99.90;;;;;;5014707;28;20219;-83
2022/05/05 01:29:03;;;;;;;4.30;3.20;;;4.90;99.90;;;;;;4996627;28;20211;-82
2022/05/05 01:31:30;;;;;;;4.47;3.53;;;4.90;99.90;;;;;;5030819;28;20207;-82
2022/05/05 01:33:57;;;;;;;5.50;3.30;;;4.90;99.90;;;;;;5003090;28;20487;-82
2022/05/05 01:36:25;;;;;;;5.00;3.97;;;4.90;99.90;;;;;;5008163;28;20384;-82
2022/05/05 01:38:51;;;;;;;4.83;3.60;;;4.90;99.90;;;;;;5007487;28;20220;-83
2022/05/05 01:41:21;;;;;;;4.13;3.33;;;4.80;99.90;;;;;;5029137;28;20622;-82
2022/05/05 01:43:48;;;;;;;5.37;3.70;;;4.80;99.90;;;;;;5012021;28;20739;-82
2022/05/05 01:46:16;;;;;;;5.97;3.40;;;4.70;99.90;;;;;;5017113;28;20278;-82
2022/05/05 01:48:42;;;;;;;7.03;3.57;;;4.70;99.90;;;;;;5028875;28;20200;-83
2022/05/05 01:51:09;;;;;;;11.93;3.77;;;4.70;99.90;;;;;;5044886;28;20212;-82
2022/05/05 01:53:38;;;;;;;4.33;3.17;;;4.70;99.90;;;;;;5007641;28;20241;-82
2022/05/05 01:56:11;;;;;;;4.00;2.90;;;4.80;99.90;;;;;;5025231;28;20198;-82
2022/05/05 01:58:41;;;;;;;4.10;3.27;;;4.70;99.90;;;;;;5029947;28;20238;-82
2022/05/05 02:01:09;;;;;;;5.80;3.33;;;4.70;99.90;;;;;;5001362;28;20212;-82
2022/05/05 02:03:36;;;;;;;6.07;3.80;;;4.70;99.90;;;;;;5018813;28;20229;-83
2022/05/05 02:06:03;;;;;;;8.93;3.67;;;4.60;99.90;;;;;;5029245;28;20199;-82
2022/05/05 02:08:29;;;;;;;4.83;3.63;;;4.60;99.90;;;;;;5024553;28;20214;-82
2022/05/05 02:10:58;;;;;;;3.97;3.40;;;4.50;99.90;;;;;;5023717;28;20914;-81
2022/05/05 02:13:25;;;;;;;3.90;3.47;;;4.60;99.90;;;;;;5006615;28;20219;-82
2022/05/05 02:15:52;;;;;;;4.90;4.03;;;4.60;99.90;;;;;;5027469;28;20246;-83
2022/05/05 02:18:19;;;;;;;4.00;3.63;;;4.50;99.90;;;;;;5019205;28;20223;-82
2022/05/05 02:20:46;;;;;;;5.60;3.50;;;4.50;99.90;;;;;;5019195;28;20211;-83
2022/05/05 02:23:15;;;;;;;4.80;4.00;;;4.50;99.90;;;;;;5026793;28;20223;-82
2022/05/05 02:25:42;;;;;;;3.80;3.10;;;4.50;99.90;;;;;;5009696;28;20257;-82
2022/05/05 02:28:10;;;;;;;6.10;3.43;;;4.50;99.90;;;;;;5027836;28;20298;-82
2022/05/05 02:30:37;;;;;;;5.40;3.70;;;4.50;99.90;;;;;;5030279;28;20826;-82
2022/05/05 02:33:04;;;;;;;5.73;3.43;;;4.40;99.90;;;;;;5015722;28;20212;-82
2022/05/05 02:35:31;;;;;;;5.17;3.33;;;4.30;99.90;;;;;;5035908;28;20645;-82
2022/05/05 02:40:52;;;;;;;4.90;3.83;;;4.20;99.90;;;;;;4998231;28;20227;-84
2022/05/05 02:43:20;;;;;;;4.67;3.07;;;4.20;99.90;;;;;;5030654;28;20246;-81
2022/05/05 02:45:47;;;;;;;5.30;3.20;;;4.30;99.90;;;;;;5026603;28;20215;-82
2022/05/05 02:48:14;;;;;;;3.50;3.07;;;4.20;99.90;;;;;;5031394;28;20193;-82
2022/05/05 02:50:41;;;;;;;3.93;3.63;;;4.30;99.90;;;;;;5006790;28;20257;-82
2022/05/05 02:55:49;;;;;;;3.57;3.27;;;4.30;99.90;;;;;;4995647;28;20207;-82
2022/05/05 02:58:16;;;;;;;4.90;3.73;;;4.20;99.90;;;;;;5030672;28;20583;-82
2022/05/05 03:00:45;;;;;;;3.80;3.40;;;4.20;99.90;;;;;;5046151;28;20820;-82
2022/05/05 03:03:12;;;;;;;7.87;3.90;;;4.10;99.90;;;;;;5012811;28;20199;-82
2022/05/05 03:05:39;;;;;;;3.60;3.30;;;4.10;99.90;;;;;;5018492;28;20602;-82
2022/05/05 03:08:06;;;;;;;5.97;3.60;;;4.10;99.90;;;;;;5030046;28;20204;-82
2022/05/05 03:10:33;;;;;;;3.93;3.33;;;4.10;99.90;;;;;;5026820;28;20200;-82
2022/05/05 03:13:00;;;;;;;3.50;3.20;;;4.10;99.90;;;;;;5024152;28;20851;-83
2022/05/05 03:15:27;;;;;;;5.00;3.47;;;4.10;99.90;;;;;;5029941;28;20226;-82
2022/05/05 03:17:56;;;;;;;4.60;3.37;;;4.10;99.90;;;;;;5027176;28;20223;-82
2022/05/05 03:20:22;;;;;;;4.67;3.30;;;4.00;99.90;;;;;;5002782;28;20219;-82
2022/05/05 03:22:50;;;;;;;4.30;3.40;;;3.90;99.90;;;;;;5026252;28;20200;-83
2022/05/05 03:25:17;;;;;;;5.60;3.37;;;3.80;99.90;;;;;;5023378;28;20220;-82
2022/05/05 03:27:44;;;;;;;3.90;3.33;;;3.70;99.90;;;;;;5024560;28;20654;-83
2022/05/05 03:30:11;;;;;;;4.53;3.90;;;3.60;99.90;;;;;;5028433;28;20188;-82
2022/05/05 03:32:38;;;;;;;6.97;4.27;;;3.60;99.90;;;;;;5041591;28;20586;-83
2022/05/05 03:35:08;;;;;;;4.40;3.97;;;3.70;99.90;;;;;;5016957;28;21411;-82
2022/05/05 03:37:34;;;;;;;4.27;3.50;;;3.70;99.90;;;;;;5031035;28;20193;-83
2022/05/05 03:40:01;;;;;;;4.23;3.83;;;3.70;99.90;;;;;;5016241;28;20242;-82
2022/05/05 03:42:29;;;;;;;4.30;3.90;;;3.60;99.90;;;;;;5007542;28;20253;-81
2022/05/05 03:44:56;;;;;;;5.63;3.77;;;3.60;99.90;;;;;;5008637;28;20289;-82
2022/05/05 03:47:25;;;;;;;4.77;3.80;;;3.60;99.90;;;;;;5028960;28;20206;-82
2022/05/05 03:49:52;;;;;;;7.73;3.87;;;3.70;99.90;;;;;;5041973;28;20204;-83
2022/05/05 03:52:20;;;;;;;4.83;4.33;;;3.70;99.90;;;;;;5018511;28;20243;-82
2022/05/05 03:54:47;;;;;;;6.90;4.10;;;3.70;99.90;;;;;;5018751;28;20762;-83
2022/05/05 03:57:15;;;;;;;5.23;3.97;;;3.70;99.90;;;;;;5026487;28;20677;-82
2022/05/05 03:59:42;;;;;;;6.17;3.53;;;3.70;99.90;;;;;;5011053;28;20216;-83
2022/05/05 04:02:09;;;;;;;7.77;4.50;;;3.70;99.90;;;;;;5026340;28;20218;-82
2022/05/05 04:04:43;;;;;;;4.40;4.00;;;3.60;99.90;;;;;;5025433;28;20235;-82
2022/05/05 04:07:10;;;;;;;3.90;3.60;;;3.60;99.90;;;;;;5001578;28;20254;-83
2022/05/05 04:09:38;;;;;;;4.50;4.10;;;3.70;99.90;;;;;;5005029;28;20207;-82
2022/05/05 04:12:06;;;;;;;4.77;4.20;;;3.70;99.90;;;;;;5024552;28;20713;-81
2022/05/05 04:14:33;;;;;;;4.30;3.90;;;3.70;99.90;;;;;;5024326;28;20771;-83
2022/05/05 04:17:03;;;;;;;6.17;4.17;;;3.60;99.90;;;;;;5029314;28;20231;-81
2022/05/05 04:19:30;;;;;;;4.50;4.10;;;3.70;99.90;;;;;;5023885;28;20218;-81
2022/05/05 04:21:57;;;;;;;4.20;3.77;;;3.60;99.90;;;;;;5019503;28;20284;-82
2022/05/05 04:24:23;;;;;;;7.07;4.30;;;3.70;99.90;;;;;;5022431;28;20219;-82
2022/05/05 04:26:51;;;;;;;5.20;4.70;;;3.70;99.90;;;;;;5005445;28;20202;-82
2022/05/05 04:29:19;;;;;;;6.27;4.80;;;3.80;99.90;;;;;;5026340;28;20217;-83
2022/05/05 04:31:46;;;;;;;4.57;4.10;;;3.80;99.90;;;;;;5026780;28;20587;-82
2022/05/05 04:34:13;;;;;;;5.17;4.67;;;3.90;99.90;;;;;;5007892;28;20219;-86
2022/05/05 04:36:40;;;;;;;10.00;5.03;;;3.90;99.90;;;;;;5026765;28;20203;-84
2022/05/05 04:39:07;;;;;;;9.40;5.10;;;3.90;99.90;;;;;;5021552;28;20794;-83
2022/05/05 04:41:34;;;;;;;6.33;5.07;;;3.90;99.90;;;;;;5022362;28;20352;-82
2022/05/05 04:44:02;;;;;;;12.63;5.40;;;4.00;99.90;;;;;;5024981;28;20224;-82
2022/05/05 04:46:29;;;;;;;5.23;4.73;;;4.00;99.90;;;;;;5031688;28;20957;-84
2022/05/05 04:48:56;;;;;;;8.37;5.10;;;4.00;99.90;;;;;;5008908;28;20215;-85
2022/05/05 04:51:22;;;;;;;6.10;4.97;;;4.10;99.90;;;;;;5027330;28;20824;-83
2022/05/05 04:53:49;;;;;;;5.73;4.90;;;4.20;99.90;;;;;;4996947;28;20314;-83
2022/05/05 04:56:16;;;;;;;7.03;5.03;;;4.20;99.90;;;;;;5012634;28;20708;-83
2022/05/05 04:58:42;;;;;;;7.27;5.27;;;4.30;99.90;;;;;;5030813;28;20243;-83
2022/05/05 05:01:11;;;;;;;15.23;5.47;;;4.40;99.90;;;;;;5006938;28;20215;-85
2022/05/05 05:03:39;;;;;;;14.50;5.70;;;4.40;99.90;;;;;;5031652;28;20764;-85
2022/05/05 05:06:07;;;;;;;6.73;5.67;;;4.50;99.90;;;;;;5007421;28;20204;-85
2022/05/05 05:08:35;;;;;;;5.93;5.03;;;4.60;99.90;;;;;;5030539;28;20200;-84
2022/05/05 05:11:02;;;;;;;7.00;5.43;;;4.70;99.90;;;;;;5009477;28;20208;-82
2022/05/05 05:13:29;;;;;;;7.77;5.43;;;4.70;99.90;;;;;;5008687;28;20232;-84
2022/05/05 05:15:58;;;;;;;6.40;5.77;;;4.80;99.90;;;;;;5027017;28;20202;-83
2022/05/05 05:18:26;;;;;;;5.70;5.00;;;4.90;99.90;;;;;;5009461;28;20196;-83
2022/05/05 05:20:55;;;;;;;7.23;5.37;;;5.00;99.90;;;;;;5011724;28;20255;-83
2022/05/05 05:23:22;;;;;;;8.13;5.87;;;5.10;99.90;;;;;;5010787;28;20915;-83
2022/05/05 05:25:49;;;;;;;6.17;5.27;;;5.20;99.90;;;;;;5013003;28;20208;-84
2022/05/05 05:28:16;;;;;;;9.03;5.27;;;5.30;99.90;;;;;;5014734;28;20396;-84
2022/05/05 05:30:43;;;;;;;8.23;4.70;;;5.40;99.90;;;;;;5031091;28;20207;-83
2022/05/05 05:33:10;;;;;;;8.17;4.63;;;5.50;99.90;;;;;;5011533;28;20208;-84
2022/05/05 05:35:39;;;;;;;7.47;4.87;;;5.60;99.90;;;;;;5012819;28;20226;-84
2022/05/05 05:38:06;;;;;;;4.33;3.80;;;5.80;99.90;;;;;;5005338;28;20707;-86
2022/05/05 05:40:33;;;;;;;4.00;3.70;;;5.90;99.90;;;;;;5020926;28;20577;-84
2022/05/05 05:43:00;;;;;;;4.40;3.87;;;6.00;99.90;;;;;;5012454;28;20232;-85
2022/05/05 05:45:28;;;;;;;3.60;2.67;;;6.20;99.90;;;;;;5020234;28;20199;-85
2022/05/05 05:47:54;;;;;;;5.83;3.30;;;6.40;99.90;;;;;;5033803;28;20436;-84
2022/05/05 05:50:21;;;;;;;7.07;3.73;;;6.60;99.90;;;;;;5047914;28;20200;-85
2022/05/05 05:52:49;;;;;;;7.40;3.07;;;6.80;99.90;;;;;;5011970;28;20268;-84
2022/05/05 05:55:17;;;;;;;5.07;2.70;;;6.90;99.90;;;;;;5032609;28;20212;-83
2022/05/05 05:57:44;;;;;;;3.13;2.87;;;7.00;99.90;;;;;;5028951;28;20751;-84
2022/05/05 06:00:12;;;;;;;4.10;3.10;;;7.10;99.90;;;;;;5012482;28;20216;-85
2022/05/05 06:05:24;;;;;;;5.17;2.57;;;7.30;99.90;;;;;;5012054;28;20341;-85
2022/05/05 06:07:53;;;;;;;5.30;3.43;;;7.40;99.90;;;;;;5031617;28;20405;-84
2022/05/05 06:10:20;;;;;;;6.67;2.90;;;7.50;99.90;;;;;;5031594;28;20222;-84
2022/05/05 06:12:47;;;;;;;4.47;2.17;;;7.60;99.90;;;;;;5008338;28;20205;-84
2022/05/05 06:15:14;;;;;;;3.67;2.20;;;7.70;99.90;;;;;;5034733;28;20223;-83
2022/05/05 06:17:41;;;;;;;9.03;2.33;;;7.80;99.90;;;;;;5015974;28;20207;-84
2022/05/05 06:20:09;;;;;;;5.83;2.00;;;7.90;99.90;;;;;;5040564;28;20219;-84
2022/05/05 06:22:37;;;;;;;4.80;2.17;;;8.10;99.90;;;;;;5011706;28;20204;-84
2022/05/05 06:25:07;;;;;;;3.30;1.93;;;8.10;99.90;;;;;;5014584;28;20266;-84
2022/05/05 06:27:35;;;;;;;6.40;1.70;;;8.10;99.90;;;;;;5026497;28;20203;-84
2022/05/05 06:30:02;;;;;;;4.00;1.60;;;8.20;99.90;;;;;;5031881;28;20188;-84
2022/05/05 06:32:28;;;;;;;3.97;2.10;;;8.30;99.90;;;;;;5031316;28;20244;-84
2022/05/05 06:34:56;;;;;;;7.37;2.50;;;8.30;99.90;;;;;;5030960;28;20216;-84
2022/05/05 06:37:22;;;;;;;5.83;1.90;;;8.50;99.90;;;;;;5009225;28;20270;-85
2022/05/05 06:39:49;;;;;;;3.37;1.87;;;8.50;99.90;;;;;;5030213;28;20282;-84
2022/05/05 06:42:18;;;;;;;9.17;2.30;;;8.60;99.90;;;;;;5005160;28;20204;-84
2022/05/05 06:44:44;;;;;;;4.23;1.77;;;8.60;99.90;;;;;;5011435;28;20319;-84
2022/05/05 06:47:12;;;;;;;3.43;1.80;;;8.70;99.90;;;;;;5037751;28;20207;-84
2022/05/05 06:49:39;;;;;;;4.13;1.97;;;8.80;99.90;;;;;;5012588;28;20283;-85
2022/05/05 06:52:06;;;;;;;6.30;1.80;;;8.90;99.90;;;;;;5031247;28;20204;-84
2022/05/05 06:54:33;;;;;;;4.43;1.90;;;8.90;99.90;;;;;;5038018;28;20223;-84
2022/05/05 06:57:00;;;;;;;4.60;1.87;;;9.00;99.90;;;;;;5027953;28;20212;-84
2022/05/05 06:59:30;;;;;;;2.57;1.77;;;9.00;99.90;;;;;;5014189;28;20207;-85
2022/05/05 07:02:02;;;;;;;6.17;1.93;;;9.10;99.90;;;;;;5022769;28;20228;-84
2022/05/05 07:07:17;;;;;;;5.17;1.80;;;9.10;99.90;;;;;;4991790;28;20215;-84
2022/05/05 07:12:31;;;;;;;4.13;1.67;;;9.20;99.90;;;;;;5006586;28;20213;-85
2022/05/05 07:14:59;;;;;;;2.70;1.63;;;9.30;99.90;;;;;;5024856;28;20839;-83
2022/05/05 07:17:27;;;;;;;4.23;1.63;;;9.30;99.90;;;;;;5019465;28;20268;-84
2022/05/05 07:19:54;;;;;;;4.40;1.77;;;9.30;99.90;;;;;;5016598;28;22541;-84
2022/05/05 07:22:21;;;;;;;3.33;1.90;;;9.40;99.90;;;;;;5033164;28;20208;-84
2022/05/05 07:24:48;;;;;;;4.00;2.17;;;9.40;99.90;;;;;;5026776;28;20220;-84
2022/05/05 07:27:15;;;;;;;3.20;2.43;;;9.50;99.90;;;;;;5040147;28;20196;-84
2022/05/05 07:29:42;;;;;;;4.87;2.37;;;9.60;99.90;;;;;;5022245;28;20291;-85
2022/05/05 07:32:11;;;;;;;4.30;2.13;;;9.60;99.90;;;;;;5026735;28;20200;-85
2022/05/05 07:34:39;;;;;;;3.90;2.17;;;9.70;99.90;;;;;;5015215;28;20319;-84
2022/05/05 07:37:06;;;;;;;4.73;1.97;;;9.80;99.90;;;;;;5022415;28;20272;-85
2022/05/05 07:39:33;;;;;;;3.67;2.00;;;9.80;99.90;;;;;;5026666;28;20226;-83
2022/05/05 07:42:00;;;;;;;4.90;1.97;;;9.90;99.90;;;;;;5016001;28;20200;-83
2022/05/05 07:44:27;;;;;;;5.10;2.10;;;10.00;99.90;;;;;;4990205;28;20234;-83
2022/05/05 07:46:54;;;;;;;5.53;1.97;;;10.10;99.90;;;;;;5017517;28;20305;-83
2022/05/05 07:49:23;;;;;;;3.43;1.90;;;;;;;;;;5013057;28;20218;-82
2022/05/05 07:51:51;;;;;;;7.20;2.37;;;10.20;99.90;;;;;;5032073;28;20192;-84
2022/05/05 07:54:38;;;;;;;3.00;2.00;;;10.40;99.90;;;;;;5033131;28;20695;-83
2022/05/05 07:57:07;;;;;;;5.67;2.30;;;10.40;99.90;;;;;;5034085;28;20216;-83
2022/05/05 07:59:34;;;;;;;3.10;2.27;;;10.50;99.90;;;;;;5003122;28;20216;-83
2022/05/05 08:02:01;;;;;;;4.23;2.27;;;10.50;99.90;;;;;;5050401;28;20200;-84
2022/05/05 08:04:29;;;;;;;4.10;1.90;;;10.60;99.90;;;;;;5041200;28;20283;-83
2022/05/05 08:06:56;;;;;;;3.60;1.73;;;10.70;99.90;;;;;;5017185;28;20222;-84
2022/05/05 08:09:23;;;;;;;4.43;1.70;;;10.80;99.90;;;;;;5013512;28;20238;-83
2022/05/05 08:11:49;;;;;;;7.70;2.20;;;10.80;99.90;;;;;;5012873;28;20231;-83
2022/05/05 08:14:16;;;;;;;3.13;1.60;;;10.90;99.90;;;;;;5026908;28;20765;-84
2022/05/05 08:16:43;;;;;;;2.97;1.70;;;11.00;99.90;;;;;;5006138;28;20592;-83
2022/05/05 08:19:10;;;;;;;3.57;2.13;;;11.10;99.90;;;;;;5016003;28;20268;-85
2022/05/05 08:21:38;;;;;;;5.17;1.57;;;11.10;99.90;;;;;;5015955;28;20222;-84
2022/05/05 08:29:36;;;;;;;5.13;2.03;;;11.20;99.90;;;;;;5017161;28;20223;-83
2022/05/05 08:32:03;;;;;;;3.67;2.03;;;11.20;99.90;;;;;;5054909;28;20207;-84
2022/05/05 08:34:29;;;;;;;2.33;1.50;;;11.20;99.90;;;;;;5027828;28;20306;-84
2022/05/05 08:36:58;;;;;;;6.67;1.43;;;11.40;99.90;;;;;;5025132;28;20223;-85
2022/05/05 08:39:24;;;;;;;6.40;1.87;;;11.50;99.90;;;;;;5022302;28;20205;-84
2022/05/05 08:41:53;;;;;;;4.37;1.67;;;11.50;99.90;;;;;;5020994;28;20232;-85
2022/05/05 08:44:20;;;;;;;2.60;1.20;;;11.50;99.90;;;;;;5005237;28;20616;-84
2022/05/05 08:46:48;;;;;;;5.07;1.80;;;11.60;99.90;;;;;;5011082;28;20210;-85
2022/05/05 08:49:19;;;;;;;5.77;1.60;;;11.60;99.90;;;;;;5034161;28;20195;-84
2022/05/05 08:51:49;;;;;;;2.70;1.40;;;11.70;99.90;;;;;;5011083;28;20914;-84
2022/05/05 08:54:18;;;;;;;7.77;2.50;;;11.90;99.90;;;;;;5012522;28;20259;-84
2022/05/05 08:56:45;;;;;;;3.67;1.70;;;12.00;99.90;;;;;;5010113;28;20715;-84
2022/05/05 08:59:14;;;;;;;3.67;1.60;;;12.00;99.90;;;;;;5036260;28;20200;-85
2022/05/05 09:01:41;;;;;;;2.80;1.33;;;12.20;99.90;;;;;;4997490;28;20528;-84
2022/05/05 09:04:09;;;;;;;2.83;1.50;;;12.30;99.90;;;;;;5012363;28;20238;-85
2022/05/05 09:06:43;;;;;;;3.43;1.63;;;12.30;99.90;;;;;;5006686;28;20304;-84
2022/05/05 09:09:28;;;;;;;1.87;1.37;;;12.40;99.90;;;;;;5007280;28;20219;-84
2022/05/05 09:12:15;;;;;;;5.27;1.87;;;12.40;99.90;;;;;;5010464;28;20497;-84
2022/05/05 09:14:44;;;;;;;3.57;1.93;;;12.50;99.90;;;;;;5001009;28;20574;-85
2022/05/05 09:17:16;;;;;;;3.20;1.50;;;12.60;99.90;;;;;;5039296;28;20263;-84
2022/05/05 09:19:45;;;;;;;2.13;1.60;;;12.70;99.90;;;;;;4990985;28;20215;-84
2022/05/05 09:22:13;;;;;;;2.27;1.57;;;12.70;99.90;;;;;;5016556;28;20550;-85
2022/05/05 09:24:44;;;;;;;3.17;1.73;;;12.80;99.90;;;;;;5006412;28;20560;-84
2022/05/05 09:27:16;;;;;;;2.93;1.67;;;12.60;99.90;;;;;;5016144;28;20258;-84
2022/05/05 09:29:43;;;;;;;6.47;1.67;;;12.70;99.60;;;;;;5030691;28;20271;-85
2022/05/05 09:32:12;;;;;;;2.70;1.70;;;12.70;99.80;;;;;;5016384;28;20242;-84
2022/05/05 09:34:38;;;;;;;3.17;1.90;;;12.90;99.90;;;;;;5018647;28;20219;-85
2022/05/05 09:37:18;;;;;;;4.33;1.80;;;12.80;99.90;;;;;;5018880;28;20214;-84
2022/05/05 09:39:47;;;;;;;3.57;1.60;;;12.90;99.70;;;;;;5029794;28;20204;-85
2022/05/05 09:42:34;;;;;;;3.53;2.00;;;13.10;99.90;;;;;;5010261;28;20225;-85
2022/05/05 09:45:18;;;;;;;4.00;1.90;;;13.10;99.70;;;;;;5024844;28;20254;-85
2022/05/05 09:47:50;;;;;;;5.97;2.10;;;13.10;99.60;;;;;;5035266;28;20761;-85
2022/05/05 09:50:19;;;;;;;3.47;1.90;;;13.20;99.30;;;;;;5005044;28;20210;-84
2022/05/05 09:58:21;;;;;;;4.10;2.10;;;13.10;99.00;;;;;;5013222;28;20238;-84
2022/05/05 10:01:05;;;;;;;3.53;1.50;;;13.10;99.00;;;;;;5011447;28;20295;-85
2022/05/05 10:04:01;;;;;;;3.67;2.10;;;13.20;99.10;;;;;;5025165;28;20262;-84
2022/05/05 10:06:33;;;;;;;2.87;1.60;;;13.30;98.50;;;;;;5026955;28;20711;-84
2022/05/05 10:09:05;;;;;;;2.33;1.40;;;13.30;98.20;;;;;;5033109;28;20201;-85
2022/05/05 10:11:33;;;;;;;3.27;1.57;;;13.30;98.00;;;;;;5010924;28;20302;-84
2022/05/05 10:14:01;;;;;;;5.73;2.23;;;13.30;98.10;;;;;;5010803;28;20227;-84
2022/05/05 10:16:30;;;;;;;4.00;1.57;;;13.40;97.80;;;;;;5034150;28;20188;-85
2022/05/05 10:18:56;;;;;;;2.17;1.80;;;13.40;97.80;;;;;;5012416;28;20199;-84
2022/05/05 10:21:44;;;;;;;3.27;1.67;;;13.50;97.60;;;;;;5022746;28;20235;-85
2022/05/05 10:24:17;;;;;;;3.60;2.03;;;13.50;96.80;;;;;;5031601;28;20282;-84
2022/05/05 10:26:49;;;;;;;3.60;1.30;;;13.60;97.20;;;;;;5019124;28;20298;-84
2022/05/05 10:29:36;;;;;;;4.67;1.90;;;13.80;99.90;;;;;;5013768;28;20213;-84
2022/05/05 10:32:09;;;;;;;3.43;1.80;;;13.70;99.90;;;;;;5014473;28;20294;-85
2022/05/05 10:34:37;;;;;;;3.90;2.43;;;13.70;96.90;;;;;;5026513;28;20305;-84
2022/05/05 10:37:06;;;;;;;3.93;1.53;;;13.80;97.10;;;;;;5000814;28;20262;-84
2022/05/05 10:39:42;;;;;;;5.20;1.60;;;13.80;96.80;;;;;;5030951;28;20731;-84
2022/05/05 10:42:15;;;;;;;2.97;1.70;;;14.00;96.80;;;;;;5013295;28;20223;-85
2022/05/05 10:45:02;;;;;;;4.07;1.93;;;;;;;;;;5018218;28;20313;-85
2022/05/05 10:48:17;;;;;;;2.80;2.10;;;14.40;99.90;;;;;;5009501;28;20230;-84
2022/05/05 10:50:53;;;;;;;3.47;2.30;;;14.50;99.90;;;;;;5017468;28;20200;-85
2022/05/05 10:53:32;;;;;;;5.30;2.30;;;14.60;99.90;;;;;;5008600;28;20763;-85
2022/05/05 10:56:00;;;;;;;3.20;2.07;;;14.70;99.90;;;;;;5020787;28;20269;-84
2022/05/05 10:59:06;;;;;;;3.33;2.00;;;14.70;99.90;;;;;;5028644;28;20680;-83
2022/05/05 11:01:59;;;;;;;4.20;2.50;;;14.80;99.70;;;;;;5008090;28;20238;-84
2022/05/05 11:04:30;;;;;;;6.50;2.70;;;14.90;97.20;;;;;;5007125;28;20599;-84
2022/05/05 11:07:31;;;;;;;3.60;2.10;;;;;;;;;;5003557;28;20212;-85
2022/05/05 11:10:01;;;;;;;5.87;2.53;;;14.80;95.90;;;;;;4990721;28;20581;-85
2022/05/05 11:12:35;;;;;;;5.80;1.70;;;15.00;95.60;;;;;;4998276;28;20295;-85
2022/05/05 11:23:43;;;;;;;2.23;1.80;;;15.20;93.80;;;;;;5027007;28;20588;-84
2022/05/05 11:26:12;;;;;;;3.80;2.13;;;;;;;;;;5015717;28;20547;-85
2022/05/05 11:28:39;;;;;;;2.47;2.27;;;15.40;93.40;;;;;;5024887;28;20239;-84
2022/05/05 11:31:18;;;;;;;3.07;2.43;;;15.40;93.10;;;;;;5005105;28;20200;-85
2022/05/05 11:33:54;;;;;;;3.37;2.60;;;15.40;93.00;;;;;;5025991;28;20307;-85
2022/05/05 11:36:25;;;;;;;3.63;2.40;;;15.50;92.40;;;;;;5012898;28;20245;-85
2022/05/05 11:38:52;;;;;;;4.83;2.93;;;15.40;92.80;;;;;;5006047;28;20207;-85
2022/05/05 11:41:23;;;;;;;2.40;2.17;;;15.50;93.20;;;;;;5035756;28;20247;-85
2022/05/05 11:46:36;;;;;;;5.27;2.80;;;15.60;93.10;;;;;;5005336;28;20200;-84
2022/05/05 11:49:03;;;;;;;7.40;2.37;;;15.90;93.20;;;;;;5033575;28;20298;-85
2022/05/05 11:51:32;;;;;;;4.80;2.50;;;16.10;93.00;;;;;;5017649;28;20216;-84
2022/05/05 11:54:05;;;;;;;5.40;2.80;;;16.10;92.60;;;;;;5032913;28;20716;-85
2022/05/05 11:56:34;;;;;;;2.70;2.47;;;16.10;92.10;;;;;;5026780;28;20210;-84
2022/05/05 12:02:00;;;;;;;3.43;2.70;;;16.30;92.20;;;;;;5007771;28;20250;-85
2022/05/05 12:04:28;;;;;;;5.67;2.77;;;16.40;92.70;;;;;;5007725;28;20224;-85
2022/05/05 12:06:55;;;;;;;3.10;2.67;;;16.50;92.00;;;;;;4999138;28;20244;-84
2022/05/05 12:09:23;;;;;;;5.27;2.70;;;16.50;91.70;;;;;;5027554;28;20194;-85
2022/05/05 12:11:51;;;;;;;2.90;2.43;;;16.80;91.70;;;;;;5000549;28;20270;-83
2022/05/05 12:14:22;;;;;;;4.17;2.53;;;16.90;90.90;;;;;;5007927;28;20314;-85
2022/05/05 12:16:51;;;;;;;5.27;2.67;;;16.90;90.30;;;;;;5039215;28;20253;-85
2022/05/05 12:19:21;;;;;;;4.37;2.77;;;16.70;90.30;;;;;;5027847;28;20228;-84
2022/05/05 12:21:54;;;;;;;2.97;2.63;;;16.60;90.30;;;;;;5009145;28;20318;-84
2022/05/05 12:24:23;;;;;;;4.90;2.90;;;16.60;91.30;;;;;;5014973;28;20691;-84
2022/05/05 12:27:06;;;;;;;4.30;3.00;;;16.80;91.00;;;;;;5022290;28;20242;-82
2022/05/05 12:29:39;;;;;;;5.00;2.80;;;16.90;89.30;;;;;;5021544;28;20290;-84
2022/05/05 12:32:09;;;;;;;5.03;3.40;;;16.90;90.60;;;;;;5019856;28;20196;-83
2022/05/05 12:34:36;;;;;;;4.57;3.73;;;16.90;90.10;;;;;;5026751;28;20220;-83
2022/05/05 12:37:16;;;;;;;4.80;3.40;;;16.70;90.10;;;;;;5012420;28;20196;-83
2022/05/05 12:39:50;;;;;;;4.40;3.13;;;16.70;90.50;;;;;;5029087;28;20199;-83
2022/05/05 12:42:21;;;;;;;6.80;3.90;;;17.00;90.80;;;;;;5024953;28;20242;-85
2022/05/05 12:44:49;;;;;;;4.30;3.40;;;17.30;90.50;;;;;;5007034;28;20274;-81
2022/05/05 12:47:21;;;;;;;7.20;4.40;;;17.30;89.20;;;;;;5026060;28;20200;-81
2022/05/05 12:49:49;;;;;;;5.23;4.20;;;17.30;88.60;;;;;;5031617;28;20759;-81
2022/05/05 13:00:52;;;;;;;5.73;5.13;;;17.30;88.80;;;;;;5028282;28;20552;-80
2022/05/05 13:03:21;;;;;;;6.33;4.40;;;17.30;88.10;;;;;;5024621;28;20195;-81
2022/05/05 13:05:48;;;;;;;6.77;5.20;;;17.40;88.60;;;;;;5032261;28;20203;-80
2022/05/05 13:08:15;;;;;;;4.80;4.40;;;17.60;88.00;;;;;;5005470;28;20216;-81
2022/05/05 13:10:42;;;;;;;5.80;4.33;;;17.70;89.20;;;;;;5009726;28;20522;-81
2022/05/05 13:13:10;;;;;;;7.00;4.20;;;17.90;87.80;;;;;;5028408;28;20660;-81
2022/05/05 13:15:37;;;;;;;7.07;4.00;;;18.40;86.80;;;;;;5014542;28;20466;-81
2022/05/05 13:18:05;;;;;;;4.77;4.10;;;18.40;86.50;;;;;;5032624;28;20211;-81
2022/05/05 13:20:33;;;;;;;9.13;4.67;;;18.20;86.40;;;;;;5032123;28;20305;-81
2022/05/05 13:23:00;;;;;;;5.70;3.97;;;18.20;86.70;;;;;;5025994;28;20270;-81
2022/05/05 13:25:27;;;;;;;5.37;4.63;;;18.50;85.80;;;;;;5028595;28;20683;-81
2022/05/05 13:27:54;;;;;;;4.83;3.80;;;19.00;83.90;;;;;;5016357;28;20219;-81
2022/05/05 13:30:22;;;;;;;4.60;4.10;;;19.30;83.30;;;;;;5033307;28;20286;-80
2022/05/05 13:32:49;;;;;;;5.67;4.13;;;19.40;81.80;;;;;;5022077;28;20249;-81
2022/05/05 13:35:16;;;;;;;4.87;3.47;;;19.30;80.70;;;;;;5007230;28;20212;-81
2022/05/05 13:37:42;;;;;;;4.20;3.43;;;19.20;81.10;;;;;;5017548;28;20212;-81
2022/05/05 13:40:11;;;;;;;5.37;4.17;;;19.00;80.60;;;;;;5015542;28;20551;-81
2022/05/05 13:42:37;;;;;;;4.60;3.90;;;18.80;81.60;;;;;;5015229;28;20220;-81
2022/05/05 13:45:05;;;;;;;4.57;3.73;;;18.80;82.10;;;;;;5035521;28;20223;-81
2022/05/05 13:47:33;;;;;;;5.57;3.90;;;18.90;81.80;;;;;;5018681;28;20200;-80
2022/05/05 13:50:00;;;;;;;4.37;3.43;;;18.80;82.00;;;;;;5023990;28;20739;-80
2022/05/05 13:52:27;;;;;;;4.30;3.80;;;18.70;82.50;;;;;;5035627;28;20200;-80
2022/05/05 13:54:56;;;;;;;5.07;3.97;;;18.60;81.80;;;;;;5014302;28;20433;-80
2022/05/05 13:57:23;;;;;;;5.33;4.53;;;18.50;83.30;;;;;;5030738;28;20200;-80